createdAt,value
2022-08-17T00:01:27.757Z,86.42
2022-08-17T00:04:13.403Z,86.43
2022-08-17T00:07:02.191Z,86.36
2022-08-17T00:09:47.638Z,86.29
2022-08-17T00:12:44.565Z,86.47
2022-08-17T00:15:30.199Z,86.11
2022-08-17T00:18:57.549Z,86.20
2022-08-17T00:21:23.914Z,85.98
2022-08-17T00:24:11.167Z,85.88
2022-08-17T00:26:56.871Z,86.11
2022-08-17T00:29:42.294Z,86.56
2022-08-17T00:33:10.813Z,86.70
2022-08-17T00:35:33.937Z,86.68
2022-08-17T00:38:20.214Z,86.95
2022-08-17T00:41:12.222Z,87.07
2022-08-17T00:44:03.940Z,87.40
2022-08-17T00:46:49.580Z,87.46
2022-08-17T00:49:34.987Z,88.07
2022-08-17T00:52:27.629Z,88.39
2022-08-17T00:55:13.515Z,88.24
2022-08-17T00:58:03.234Z,88.72
2022-08-17T01:00:49.875Z,89.13
2022-08-17T01:03:37.410Z,89.17
2022-08-17T01:06:24.057Z,89.18
2022-08-17T01:09:09.824Z,89.61
2022-08-17T01:11:55.151Z,89.57
2022-08-17T01:14:41.376Z,89.86
2022-08-17T01:17:28.560Z,89.98
2022-08-17T01:20:14.107Z,90.03
2022-08-17T01:23:01.650Z,89.86
2022-08-17T01:25:50.939Z,89.81
2022-08-17T01:28:55.168Z,90.02
2022-08-17T01:31:49.230Z,90.03
2022-08-17T01:34:43.671Z,89.58
2022-08-17T01:37:39.714Z,89.51
2022-08-17T01:40:39.199Z,89.53
2022-08-17T01:43:32.745Z,89.85
2022-08-17T01:46:33.075Z,90.02
2022-08-17T01:49:18.855Z,89.84
2022-08-17T01:52:08.564Z,89.99
2022-08-17T01:54:54.799Z,89.86
2022-08-17T01:57:40.077Z,90.20
2022-08-17T02:00:27.446Z,90.35
2022-08-17T02:03:34.800Z,90.33
2022-08-17T02:06:27.449Z,90.63
2022-08-17T02:09:16.745Z,90.26
2022-08-17T02:12:37.337Z,90.42
2022-08-17T02:15:12.497Z,90.46
2022-08-17T02:17:58.225Z,89.98
2022-08-17T02:20:43.905Z,90.00
2022-08-17T02:23:32.303Z,89.95
2022-08-17T02:26:24.022Z,89.68
2022-08-17T02:29:22.542Z,89.69
2022-08-17T02:32:27.996Z,89.79
2022-08-17T02:35:14.546Z,89.90
2022-08-17T02:38:07.379Z,89.74
2022-08-17T02:40:53.119Z,90.03
2022-08-17T02:43:38.546Z,90.13
2022-08-17T02:46:24.036Z,90.30
2022-08-17T02:49:09.758Z,90.43
2022-08-17T02:51:58.246Z,90.50
2022-08-17T02:54:45.153Z,90.71
2022-08-17T02:57:30.717Z,90.77
2022-08-17T03:00:23.271Z,90.92
2022-08-17T03:03:10.950Z,91.11
2022-08-17T03:05:56.827Z,91.42
2022-08-17T03:08:42.797Z,91.15
2022-08-17T03:11:29.077Z,91.03
2022-08-17T03:14:14.877Z,91.02
2022-08-17T03:17:01.258Z,91.57
2022-08-17T03:19:46.674Z,91.47
2022-08-17T03:22:38.483Z,91.86
2022-08-17T03:25:30.738Z,92.17
2022-08-17T03:28:17.378Z,92.17
2022-08-17T03:31:03.921Z,92.47
2022-08-17T03:33:53.376Z,92.49
2022-08-17T03:36:40.249Z,92.57
2022-08-17T03:39:25.850Z,92.98
2022-08-17T03:42:31.578Z,92.91
2022-08-17T03:45:44.120Z,93.14
2022-08-17T03:48:49.316Z,93.30
2022-08-17T03:51:55.877Z,93.01
2022-08-17T03:55:02.522Z,93.13
2022-08-17T03:57:49.363Z,92.87
2022-08-17T04:00:36.770Z,93.09
2022-08-17T04:03:25.984Z,93.21
2022-08-17T04:06:12.018Z,93.22
2022-08-17T04:25:35.477Z,96.50
2022-08-17T04:28:21.191Z,96.87
2022-08-17T04:31:07.794Z,96.98
2022-08-17T04:33:54.608Z,96.82
2022-08-17T04:36:40.805Z,96.86
2022-08-17T04:39:37.296Z,96.49
2022-08-17T04:42:22.787Z,96.10
2022-08-17T04:45:08.397Z,95.82
2022-08-17T04:47:57.007Z,95.76
2022-08-17T04:50:47.324Z,95.74
2022-08-17T04:53:33.084Z,95.71
2022-08-17T04:56:19.435Z,95.64
2022-08-17T04:59:08.978Z,95.48
2022-08-17T05:01:57.630Z,95.57
2022-08-17T05:04:46.246Z,95.28
2022-08-17T05:07:33.175Z,94.76
2022-08-17T05:10:20.810Z,94.61
2022-08-17T05:13:15.393Z,94.37
2022-08-17T05:16:03.957Z,93.95
2022-08-17T05:18:50.131Z,93.94
2022-08-17T05:21:35.648Z,93.63
2022-08-17T05:24:38.528Z,93.85
2022-08-17T05:27:30.842Z,94.25
2022-08-17T05:30:21.730Z,93.95
2022-08-17T05:33:10.965Z,94.04
2022-08-17T05:35:59.039Z,93.75
2022-08-17T05:38:47.556Z,93.65
2022-08-17T05:41:34.052Z,93.93
2022-08-17T05:44:19.565Z,93.78
2022-08-17T05:47:07.344Z,93.96
2022-08-17T05:49:57.409Z,93.89
2022-08-17T05:52:46.112Z,94.11
2022-08-17T05:56:30.276Z,94.26
2022-08-17T05:59:45.346Z,94.00
2022-08-17T06:02:51.482Z,93.73
2022-08-17T06:05:52.224Z,93.80
2022-08-17T06:08:56.641Z,93.81
2022-08-17T06:11:47.886Z,93.83
2022-08-17T06:15:09.655Z,93.43
2022-08-17T06:17:59.983Z,92.88
2022-08-17T06:20:52.956Z,92.42
2022-08-17T06:23:49.797Z,92.60
2022-08-17T06:26:43.259Z,92.51
2022-08-17T06:29:38.265Z,93.04
2022-08-17T06:32:25.150Z,93.16
2022-08-17T06:35:42.538Z,93.59
2022-08-17T06:38:37.261Z,93.72
2022-08-17T06:41:52.368Z,93.58
2022-08-17T06:44:51.209Z,94.06
2022-08-17T06:47:49.423Z,94.07
2022-08-17T06:50:38.866Z,94.40
2022-08-17T06:53:37.667Z,94.38
2022-08-17T06:56:52.716Z,94.29
2022-08-17T06:59:56.786Z,94.02
2022-08-17T07:02:51.339Z,93.93
2022-08-17T07:05:53.063Z,94.32
2022-08-17T07:08:45.858Z,94.17
2022-08-17T07:11:31.449Z,94.08
2022-08-17T07:15:01.992Z,93.87
2022-08-17T07:17:50.437Z,94.45
2022-08-17T07:20:43.500Z,94.19
2022-08-17T07:23:44.656Z,93.82
2022-08-17T07:26:30.225Z,93.77
2022-08-17T07:29:19.692Z,93.66
2022-08-17T07:32:06.355Z,93.95
2022-08-17T07:35:23.620Z,93.87
2022-08-17T07:38:31.635Z,93.76
2022-08-17T07:41:20.761Z,93.84
2022-08-17T07:44:17.180Z,93.71
2022-08-17T07:47:35.892Z,93.30
2022-08-17T07:50:31.984Z,94.10
2022-08-17T07:53:24.591Z,94.11
2022-08-17T07:56:34.522Z,93.92
2022-08-17T07:59:24.952Z,93.83
2022-08-17T08:02:40.762Z,93.11
2022-08-17T08:05:50.375Z,93.48
2022-08-17T08:08:45.769Z,93.92
2022-08-17T08:11:41.265Z,92.71
2022-08-17T08:14:40.667Z,92.39
2022-08-17T08:17:35.874Z,91.81
2022-08-17T08:20:53.870Z,91.23
2022-08-17T08:24:03.512Z,91.25
2022-08-17T08:27:02.951Z,91.32
2022-08-17T08:30:08.437Z,90.55
2022-08-17T08:33:03.226Z,90.39
2022-08-17T08:36:00.081Z,90.42
2022-08-17T08:39:04.652Z,90.34
2022-08-17T08:42:20.823Z,90.52
2022-08-17T08:45:19.726Z,90.78
2022-08-17T08:48:52.877Z,90.58
2022-08-17T08:51:51.971Z,90.29
2022-08-17T08:54:47.639Z,90.69
2022-08-17T08:58:07.289Z,90.62
2022-08-17T09:00:58.708Z,90.16
2022-08-17T09:04:24.746Z,89.96
2022-08-17T09:07:39.074Z,88.47
2022-08-17T09:12:02.643Z,88.50
2022-08-17T09:15:38.264Z,88.55
2022-08-17T09:19:01.747Z,87.09
2022-08-17T09:22:02.410Z,87.16
2022-08-17T09:25:06.837Z,88.04
2022-08-17T09:28:01.650Z,86.93
2022-08-17T09:30:55.174Z,87.76
2022-08-17T09:33:46.052Z,87.28
2022-08-17T09:36:41.040Z,86.36
2022-08-17T09:39:34.858Z,84.95
2022-08-17T09:42:32.954Z,84.73
2022-08-17T09:45:51.204Z,84.02
2022-08-17T09:48:57.303Z,84.90
2022-08-17T09:51:52.228Z,84.77
2022-08-17T09:54:40.970Z,85.40
2022-08-17T09:57:59.084Z,86.30
2022-08-17T10:00:56.264Z,87.09
2022-08-17T10:04:03.285Z,86.74
2022-08-17T10:07:01.088Z,85.65
2022-08-17T10:10:14.351Z,86.31
2022-08-17T10:13:32.235Z,86.34
2022-08-17T10:16:43.878Z,86.56
2022-08-17T10:19:54.268Z,86.47
2022-08-17T10:23:16.030Z,86.37
2022-08-17T10:26:13.561Z,86.57
2022-08-17T10:29:01.593Z,86.71
2022-08-17T10:31:53.431Z,86.41
2022-08-17T10:34:47.585Z,87.04
2022-08-17T10:37:49.413Z,86.62
2022-08-17T10:41:12.049Z,86.22
2022-08-17T10:44:40.424Z,100.00
2022-08-17T10:47:15.408Z,100.00
2022-08-17T10:50:42.617Z,100.00
2022-08-17T10:53:31.348Z,100.00
2022-08-17T10:56:18.937Z,100.00
2022-08-17T10:59:04.182Z,100.00
2022-08-17T11:01:49.608Z,100.00
2022-08-17T11:05:06.368Z,100.00
2022-08-17T11:07:54.671Z,100.00
2022-08-17T11:10:52.718Z,100.00
2022-08-17T11:14:08.760Z,100.00
2022-08-17T11:17:03.655Z,100.00
2022-08-17T11:19:54.737Z,100.00
2022-08-17T11:22:43.110Z,100.00
2022-08-17T11:25:56.807Z,100.00
2022-08-17T11:28:52.897Z,100.00
2022-08-17T11:31:43.455Z,100.00
2022-08-17T11:34:31.720Z,100.00
2022-08-17T11:37:35.845Z,100.00
2022-08-17T11:40:42.060Z,100.00
2022-08-17T11:43:43.741Z,100.00
2022-08-17T11:47:09.735Z,100.00
2022-08-17T11:50:27.976Z,100.00
2022-08-17T11:53:49.818Z,100.00
2022-08-17T11:56:43.299Z,100.00
2022-08-17T11:59:36.020Z,100.00
2022-08-17T12:02:32.689Z,100.00
2022-08-17T12:05:21.140Z,100.00
2022-08-17T12:08:19.695Z,100.00
2022-08-17T12:12:11.009Z,100.00
2022-08-17T12:15:11.500Z,100.00
2022-08-17T12:17:58.359Z,100.00
2022-08-17T12:20:56.659Z,100.00
2022-08-17T12:23:54.975Z,100.00
2022-08-17T12:26:44.017Z,100.00
2022-08-17T12:29:35.182Z,100.00
2022-08-17T12:32:28.286Z,100.00
2022-08-17T12:35:33.096Z,100.00
2022-08-17T12:38:31.916Z,100.00
2022-08-17T12:41:40.844Z,100.00
2022-08-17T12:44:44.813Z,100.00
2022-08-17T12:47:37.341Z,100.00
2022-08-17T12:50:28.505Z,100.00
2022-08-17T12:53:24.057Z,100.00
2022-08-17T12:56:13.316Z,100.00
2022-08-17T12:58:59.942Z,100.00
2022-08-17T13:01:48.286Z,100.00
2022-08-17T13:04:33.524Z,100.00
2022-08-17T13:07:42.617Z,100.00
2022-08-17T13:10:33.299Z,100.00
2022-08-17T13:13:24.692Z,100.00
2022-08-17T13:16:14.329Z,100.00
2022-08-17T13:19:09.664Z,100.00
2022-08-17T13:21:59.139Z,100.00
2022-08-17T13:24:54.181Z,100.00
2022-08-17T13:27:43.145Z,100.00
2022-08-17T13:30:32.593Z,100.00
2022-08-17T13:33:43.239Z,100.00
2022-08-17T13:38:51.717Z,75.95
2022-08-17T13:41:38.201Z,76.17
2022-08-17T13:44:40.601Z,77.28
2022-08-17T13:47:27.539Z,76.40
2022-08-17T13:50:20.957Z,76.29
2022-08-17T13:53:23.139Z,77.01
2022-08-17T13:56:37.407Z,76.20
2022-08-17T13:59:55.126Z,75.88
2022-08-17T14:02:43.892Z,75.17
2022-08-17T14:05:31.727Z,75.41
2022-08-17T14:08:20.771Z,76.17
2022-08-17T14:11:06.669Z,77.14
2022-08-17T14:13:52.191Z,75.58
2022-08-17T14:16:41.633Z,75.09
2022-08-17T14:19:26.956Z,73.93
2022-08-17T14:22:25.656Z,73.75
2022-08-17T14:25:13.956Z,73.94
2022-08-17T14:27:59.982Z,74.19
2022-08-17T14:30:46.371Z,72.90
2022-08-17T14:33:31.931Z,73.19
2022-08-17T14:36:17.718Z,73.04
2022-08-17T14:39:03.170Z,74.10
2022-08-17T14:41:49.087Z,73.56
2022-08-17T14:44:34.950Z,73.40
2022-08-17T14:47:20.809Z,73.08
2022-08-17T14:50:11.330Z,73.68
2022-08-17T14:52:58.114Z,72.85
2022-08-17T14:55:46.998Z,72.00
2022-08-17T14:58:33.192Z,71.87
2022-08-17T15:01:20.488Z,71.44
2022-08-17T15:04:06.312Z,72.02
2022-08-17T15:06:51.589Z,72.10
2022-08-17T15:09:36.958Z,72.04
2022-08-17T15:12:26.441Z,72.01
2022-08-17T15:15:17.998Z,72.06
2022-08-17T15:18:03.846Z,72.59
2022-08-17T15:20:50.262Z,73.21
2022-08-17T15:23:36.438Z,73.58
2022-08-17T15:26:26.229Z,73.64
2022-08-17T15:29:11.853Z,74.27
2022-08-17T15:32:00.570Z,74.32
2022-08-17T15:34:46.475Z,74.57
2022-08-17T15:37:32.205Z,73.69
2022-08-17T15:40:18.142Z,73.70
2022-08-17T15:43:08.587Z,73.25
2022-08-17T15:46:02.259Z,72.29
2022-08-17T15:48:53.407Z,72.84
2022-08-17T15:51:38.981Z,73.15
2022-08-17T15:54:24.351Z,72.01
2022-08-17T15:57:09.731Z,72.04
2022-08-17T15:59:58.751Z,72.03
2022-08-17T16:03:44.716Z,72.64
2022-08-17T16:05:51.400Z,73.20
2022-08-17T16:08:38.641Z,73.22
2022-08-17T16:11:26.015Z,73.21
2022-08-17T16:14:11.367Z,72.90
2022-08-17T16:16:59.896Z,73.34
2022-08-17T16:19:46.878Z,73.72
2022-08-17T16:22:36.441Z,73.79
2022-08-17T16:25:52.651Z,73.77
2022-08-17T16:28:36.375Z,74.77
2022-08-17T16:31:22.447Z,75.26
2022-08-17T16:34:17.549Z,76.02
2022-08-17T16:37:04.478Z,76.55
2022-08-17T16:39:50.208Z,76.83
2022-08-17T16:42:38.579Z,76.93
2022-08-17T16:45:27.503Z,76.70
2022-08-17T16:48:13.066Z,77.22
2022-08-17T16:51:02.951Z,77.44
2022-08-17T16:53:57.887Z,78.10
2022-08-17T16:56:46.438Z,78.41
2022-08-17T16:59:41.917Z,78.80
2022-08-17T17:02:37.174Z,79.08
2022-08-17T17:05:28.489Z,79.60
2022-08-17T17:08:22.970Z,79.95
2022-08-17T17:11:23.084Z,79.71
2022-08-17T17:14:20.234Z,79.79
2022-08-17T17:17:33.503Z,79.43
2022-08-17T17:20:29.008Z,80.01
2022-08-17T17:23:34.339Z,80.01
2022-08-17T17:26:23.718Z,80.42
2022-08-17T17:29:09.056Z,80.83
2022-08-17T17:32:20.783Z,80.73
2022-08-17T17:37:57.260Z,80.80
2022-08-17T17:40:47.362Z,80.68
2022-08-17T17:43:39.739Z,81.09
2022-08-17T17:46:31.388Z,80.98
2022-08-17T17:49:18.450Z,80.68
2022-08-17T17:52:16.903Z,80.88
2022-08-17T17:55:15.558Z,80.82
2022-08-17T17:58:13.443Z,81.16
2022-08-17T18:01:33.303Z,81.67
2022-08-17T18:04:23.588Z,81.60
2022-08-17T18:07:31.438Z,81.78
2022-08-17T18:10:49.011Z,82.01
2022-08-17T18:14:14.758Z,81.25
2022-08-17T18:17:02.194Z,81.35
2022-08-17T18:19:48.309Z,80.87
2022-08-17T18:22:34.174Z,81.63
2022-08-17T18:25:59.525Z,81.98
2022-08-17T18:28:50.766Z,82.62
2022-08-17T18:31:36.201Z,82.70
2022-08-17T18:37:45.069Z,84.14
2022-08-17T18:40:34.643Z,84.95
2022-08-17T18:43:44.161Z,85.68
2022-08-17T18:46:40.149Z,85.78
2022-08-17T18:49:28.433Z,86.08
2022-08-17T18:52:30.325Z,86.04
2022-08-17T18:55:15.909Z,86.17
2022-08-17T18:58:20.326Z,86.25
2022-08-17T19:01:19.053Z,86.18
2022-08-17T19:04:05.580Z,86.12
2022-08-17T19:07:06.888Z,86.13
2022-08-17T19:10:28.834Z,86.15
2022-08-17T19:13:38.223Z,86.12
2022-08-17T19:17:01.086Z,86.64
2022-08-17T19:19:54.544Z,86.72
2022-08-17T19:23:08.187Z,87.04
2022-08-17T19:25:58.470Z,87.15
2022-08-17T19:28:53.218Z,87.08
2022-08-17T19:31:38.872Z,86.74
2022-08-17T19:34:30.242Z,86.74
2022-08-17T19:37:48.194Z,86.52
2022-08-17T19:40:54.138Z,86.42
2022-08-17T19:43:55.520Z,85.95
2022-08-17T19:46:56.324Z,85.49
2022-08-17T19:50:01.336Z,85.16
2022-08-17T19:53:00.426Z,85.04
2022-08-17T19:56:14.867Z,85.00
2022-08-17T19:59:11.293Z,85.09
2022-08-17T20:02:02.934Z,84.97
2022-08-17T20:04:51.950Z,84.83
2022-08-17T20:07:53.882Z,85.19
2022-08-17T20:10:54.821Z,85.79
2022-08-17T20:13:49.596Z,86.52
2022-08-17T20:16:35.354Z,86.70
2022-08-17T20:19:27.520Z,87.52
2022-08-17T20:22:29.034Z,87.80
2022-08-17T20:26:03.798Z,88.03
2022-08-17T20:29:20.212Z,88.14
2022-08-17T20:32:31.039Z,88.23
2022-08-17T20:35:28.612Z,88.18
2022-08-17T20:38:54.405Z,88.20
2022-08-17T20:42:05.110Z,88.02
2022-08-17T20:44:58.279Z,88.09
2022-08-17T20:48:07.746Z,88.23
2022-08-17T20:51:03.190Z,87.95
2022-08-17T20:53:53.508Z,88.35
2022-08-17T20:56:52.022Z,88.68
2022-08-17T20:59:43.728Z,88.58
2022-08-17T21:02:32.311Z,89.06
2022-08-17T21:05:32.447Z,89.01
2022-08-17T21:08:45.273Z,88.98
2022-08-17T21:12:02.890Z,88.99
2022-08-17T21:15:01.504Z,88.75
2022-08-17T21:17:59.871Z,88.83
2022-08-17T21:21:19.739Z,88.85
2022-08-17T21:24:08.382Z,88.79
2022-08-17T21:27:04.021Z,88.96
2022-08-17T21:30:14.964Z,89.12
2022-08-17T21:33:21.563Z,89.10
2022-08-17T21:36:11.716Z,88.88
2022-08-17T21:39:06.656Z,89.19
2022-08-17T21:41:55.911Z,89.09
2022-08-17T21:44:49.403Z,89.28
2022-08-17T21:47:35.085Z,89.35
2022-08-17T21:50:23.768Z,89.62
2022-08-17T21:53:14.711Z,89.59
2022-08-17T21:56:00.902Z,89.69
2022-08-17T21:58:55.798Z,89.67
2022-08-17T22:01:43.080Z,89.49
2022-08-17T22:04:34.589Z,89.53
2022-08-17T22:07:38.365Z,89.60
2022-08-17T22:10:31.821Z,89.72
2022-08-17T22:13:17.707Z,89.76
2022-08-17T22:16:15.695Z,89.89
2022-08-17T22:19:14.566Z,90.04
2022-08-17T22:22:05.651Z,89.85
2022-08-17T22:24:56.880Z,89.85
2022-08-17T22:27:52.139Z,90.42
2022-08-17T22:31:00.349Z,90.51
2022-08-17T22:33:57.883Z,90.50
2022-08-17T22:36:43.585Z,90.21
2022-08-17T22:39:28.875Z,90.11
2022-08-17T22:42:15.344Z,89.98
2022-08-17T22:45:00.782Z,90.24
2022-08-17T22:47:48.910Z,90.10
2022-08-17T22:50:34.696Z,90.59
2022-08-17T22:53:41.988Z,90.75
2022-08-17T22:56:46.036Z,90.81
2022-08-17T22:59:50.295Z,90.89
2022-08-17T23:02:36.282Z,90.54
2022-08-17T23:05:43.091Z,90.88
2022-08-17T23:08:28.387Z,91.17
2022-08-17T23:11:15.020Z,90.38
2022-08-17T23:14:01.405Z,90.04
2022-08-17T23:16:50.968Z,89.89
2022-08-17T23:19:36.428Z,89.34
2022-08-17T23:22:21.714Z,89.05
2022-08-17T23:25:07.947Z,88.91
2022-08-17T23:27:53.380Z,88.78
2022-08-17T23:30:42.574Z,88.89
2022-08-17T23:33:34.437Z,88.98
2022-08-17T23:36:20.147Z,88.98
2022-08-17T23:39:06.715Z,88.80
2022-08-17T23:41:53.530Z,88.60
2022-08-17T23:44:40.973Z,88.68
2022-08-17T23:47:26.596Z,88.74
2022-08-17T23:50:12.009Z,88.99
2022-08-17T23:52:57.928Z,89.05
2022-08-17T23:55:43.360Z,89.34
2022-08-17T23:58:29.431Z,89.33
